sensor_id;sensor_type;location;lat;lon;timestamp;P1;durP1;ratioP1;P2;durP2;ratioP2
74963;SDS011;63521;51.900;4.748;2023-05-10T00:01:47;2.17;;;1.55;;
74963;SDS011;63521;51.900;4.748;2023-05-10T00:04:12;2.22;;;1.30;;
74963;SDS011;63521;51.900;4.748;2023-05-10T00:06:38;1.75;;;1.35;;
74963;SDS011;63521;51.900;4.748;2023-05-10T00:09:03;1.63;;;1.10;;
74963;SDS011;63521;51.900;4.748;2023-05-10T00:11:29;2.20;;;1.30;;
74963;SDS011;63521;51.900;4.748;2023-05-10T00:13:54;3.35;;;1.40;;
74963;SDS011;63521;51.900;4.748;2023-05-10T00:16:20;3.17;;;1.80;;
74963;SDS011;63521;51.900;4.748;2023-05-10T00:18:45;2.90;;;1.50;;
74963;SDS011;63521;51.900;4.748;2023-05-10T00:21:11;3.28;;;1.80;;
74963;SDS011;63521;51.900;4.748;2023-05-10T00:23:36;2.03;;;1.40;;
74963;SDS011;63521;51.900;4.748;2023-05-10T00:26:02;2.97;;;1.70;;
74963;SDS011;63521;51.900;4.748;2023-05-10T00:28:28;2.47;;;1.50;;
74963;SDS011;63521;51.900;4.748;2023-05-10T00:30:54;3.63;;;1.65;;
74963;SDS011;63521;51.900;4.748;2023-05-10T00:33:20;3.33;;;1.80;;
74963;SDS011;63521;51.900;4.748;2023-05-10T00:35:46;3.75;;;1.85;;
74963;SDS011;63521;51.900;4.748;2023-05-10T00:38:11;2.33;;;1.50;;
74963;SDS011;63521;51.900;4.748;2023-05-10T00:40:37;4.43;;;1.80;;
74963;SDS011;63521;51.900;4.748;2023-05-10T00:43:02;4.03;;;1.70;;
74963;SDS011;63521;51.900;4.748;2023-05-10T00:45:28;2.50;;;1.70;;
74963;SDS011;63521;51.900;4.748;2023-05-10T00:47:55;2.70;;;1.70;;
74963;SDS011;63521;51.900;4.748;2023-05-10T00:50:24;3.28;;;1.92;;
74963;SDS011;63521;51.900;4.748;2023-05-10T00:52:49;2.95;;;1.73;;
74963;SDS011;63521;51.900;4.748;2023-05-10T00:55:15;2.83;;;1.60;;
74963;SDS011;63521;51.900;4.748;2023-05-10T00:57:41;2.88;;;1.65;;
74963;SDS011;63521;51.900;4.748;2023-05-10T01:00:07;2.45;;;1.40;;
74963;SDS011;63521;51.900;4.748;2023-05-10T01:02:33;2.45;;;1.58;;
74963;SDS011;63521;51.900;4.748;2023-05-10T01:05:00;2.47;;;1.52;;
74963;SDS011;63521;51.900;4.748;2023-05-10T01:07:28;2.38;;;1.42;;
74963;SDS011;63521;51.900;4.748;2023-05-10T01:09:54;2.47;;;1.80;;
74963;SDS011;63521;51.900;4.748;2023-05-10T01:12:20;4.15;;;1.88;;
74963;SDS011;63521;51.900;4.748;2023-05-10T01:14:45;2.72;;;1.55;;
74963;SDS011;63521;51.900;4.748;2023-05-10T01:17:11;2.15;;;1.45;;
74963;SDS011;63521;51.900;4.748;2023-05-10T01:19:37;2.75;;;1.58;;
74963;SDS011;63521;51.900;4.748;2023-05-10T01:22:24;3.38;;;1.70;;
74963;SDS011;63521;51.900;4.748;2023-05-10T01:33:11;2.42;;;1.42;;
74963;SDS011;63521;51.900;4.748;2023-05-10T01:36:03;3.15;;;1.40;;
74963;SDS011;63521;51.900;4.748;2023-05-10T01:38:42;2.60;;;1.60;;
74963;SDS011;63521;51.900;4.748;2023-05-10T01:44:17;2.42;;;1.38;;
74963;SDS011;63521;51.900;4.748;2023-05-10T01:46:52;3.10;;;1.70;;
74963;SDS011;63521;51.900;4.748;2023-05-10T01:49:26;2.47;;;1.70;;
74963;SDS011;63521;51.900;4.748;2023-05-10T01:51:55;3.30;;;1.98;;
74963;SDS011;63521;51.900;4.748;2023-05-10T01:54:29;3.90;;;1.70;;
74963;SDS011;63521;51.900;4.748;2023-05-10T01:56:58;3.70;;;2.08;;
74963;SDS011;63521;51.900;4.748;2023-05-10T01:59:27;4.13;;;1.67;;
74963;SDS011;63521;51.900;4.748;2023-05-10T02:01:55;4.57;;;2.13;;
74963;SDS011;63521;51.900;4.748;2023-05-10T02:04:22;2.72;;;1.70;;
74963;SDS011;63521;51.900;4.748;2023-05-10T02:06:48;2.92;;;1.65;;
74963;SDS011;63521;51.900;4.748;2023-05-10T02:09:15;2.83;;;1.70;;
74963;SDS011;63521;51.900;4.748;2023-05-10T02:11:42;2.97;;;1.70;;
74963;SDS011;63521;51.900;4.748;2023-05-10T02:14:08;3.30;;;1.70;;
74963;SDS011;63521;51.900;4.748;2023-05-10T02:16:34;3.15;;;1.48;;
74963;SDS011;63521;51.900;4.748;2023-05-10T02:19:00;3.38;;;2.10;;
74963;SDS011;63521;51.900;4.748;2023-05-10T02:21:26;4.25;;;1.90;;
74963;SDS011;63521;51.900;4.748;2023-05-10T02:23:53;3.13;;;1.95;;
74963;SDS011;63521;51.900;4.748;2023-05-10T02:26:19;3.22;;;1.52;;
74963;SDS011;63521;51.900;4.748;2023-05-10T02:28:46;3.08;;;1.67;;
74963;SDS011;63521;51.900;4.748;2023-05-10T02:31:12;3.42;;;1.90;;
74963;SDS011;63521;51.900;4.748;2023-05-10T02:33:39;2.88;;;1.60;;
74963;SDS011;63521;51.900;4.748;2023-05-10T02:36:05;3.10;;;1.60;;
74963;SDS011;63521;51.900;4.748;2023-05-10T02:38:32;2.75;;;1.80;;
74963;SDS011;63521;51.900;4.748;2023-05-10T02:40:59;3.60;;;2.00;;
74963;SDS011;63521;51.900;4.748;2023-05-10T02:43:25;3.92;;;1.80;;
74963;SDS011;63521;51.900;4.748;2023-05-10T02:45:51;3.78;;;1.70;;
74963;SDS011;63521;51.900;4.748;2023-05-10T02:48:16;2.40;;;1.60;;
74963;SDS011;63521;51.900;4.748;2023-05-10T02:50:43;3.13;;;1.95;;
74963;SDS011;63521;51.900;4.748;2023-05-10T02:53:10;3.13;;;1.40;;
74963;SDS011;63521;51.900;4.748;2023-05-10T02:55:37;2.30;;;1.63;;
74963;SDS011;63521;51.900;4.748;2023-05-10T02:58:04;2.90;;;1.50;;
74963;SDS011;63521;51.900;4.748;2023-05-10T03:00:30;2.92;;;1.80;;
74963;SDS011;63521;51.900;4.748;2023-05-10T03:02:56;3.47;;;1.85;;
74963;SDS011;63521;51.900;4.748;2023-05-10T03:05:21;2.08;;;1.50;;
74963;SDS011;63521;51.900;4.748;2023-05-10T03:07:47;3.03;;;1.75;;
74963;SDS011;63521;51.900;4.748;2023-05-10T03:10:12;2.97;;;1.80;;
74963;SDS011;63521;51.900;4.748;2023-05-10T03:15:47;3.25;;;1.67;;
74963;SDS011;63521;51.900;4.748;2023-05-10T03:20:56;2.67;;;1.65;;
74963;SDS011;63521;51.900;4.748;2023-05-10T03:26:04;3.03;;;1.65;;
74963;SDS011;63521;51.900;4.748;2023-05-10T03:28:29;2.85;;;1.75;;
74963;SDS011;63521;51.900;4.748;2023-05-10T03:30:56;2.92;;;1.60;;
74963;SDS011;63521;51.900;4.748;2023-05-10T03:33:22;3.42;;;1.63;;
74963;SDS011;63521;51.900;4.748;2023-05-10T03:35:48;3.53;;;2.05;;
74963;SDS011;63521;51.900;4.748;2023-05-10T03:38:13;3.17;;;1.52;;
74963;SDS011;63521;51.900;4.748;2023-05-10T03:40:39;3.28;;;1.77;;
74963;SDS011;63521;51.900;4.748;2023-05-10T03:43:04;2.80;;;1.90;;
74963;SDS011;63521;51.900;4.748;2023-05-10T03:45:33;3.53;;;2.00;;
74963;SDS011;63521;51.900;4.748;2023-05-10T03:47:58;2.85;;;1.75;;
74963;SDS011;63521;51.900;4.748;2023-05-10T03:50:24;3.13;;;1.60;;
74963;SDS011;63521;51.900;4.748;2023-05-10T03:52:49;3.05;;;1.92;;
74963;SDS011;63521;51.900;4.748;2023-05-10T03:55:15;3.05;;;1.80;;
74963;SDS011;63521;51.900;4.748;2023-05-10T03:57:41;4.22;;;2.20;;
74963;SDS011;63521;51.900;4.748;2023-05-10T04:00:07;3.95;;;2.25;;
74963;SDS011;63521;51.900;4.748;2023-05-10T04:02:33;4.82;;;2.30;;
74963;SDS011;63521;51.900;4.748;2023-05-10T04:04:58;5.38;;;2.33;;
74963;SDS011;63521;51.900;4.748;2023-05-10T04:07:24;5.95;;;2.45;;
74963;SDS011;63521;51.900;4.748;2023-05-10T04:09:50;3.53;;;1.90;;
74963;SDS011;63521;51.900;4.748;2023-05-10T04:12:16;3.78;;;2.17;;
74963;SDS011;63521;51.900;4.748;2023-05-10T04:14:41;4.15;;;2.28;;
74963;SDS011;63521;51.900;4.748;2023-05-10T04:17:07;4.35;;;2.17;;
74963;SDS011;63521;51.900;4.748;2023-05-10T04:19:32;4.80;;;2.60;;
74963;SDS011;63521;51.900;4.748;2023-05-10T04:21:58;4.45;;;2.30;;
74963;SDS011;63521;51.900;4.748;2023-05-10T04:24:26;3.65;;;2.25;;
74963;SDS011;63521;51.900;4.748;2023-05-10T04:26:53;3.72;;;2.15;;
74963;SDS011;63521;51.900;4.748;2023-05-10T04:29:19;4.85;;;2.20;;
74963;SDS011;63521;51.900;4.748;2023-05-10T04:31:45;4.47;;;2.20;;
74963;SDS011;63521;51.900;4.748;2023-05-10T04:34:10;4.20;;;2.03;;
74963;SDS011;63521;51.900;4.748;2023-05-10T04:36:37;3.10;;;1.80;;
74963;SDS011;63521;51.900;4.748;2023-05-10T04:39:02;4.55;;;2.33;;
74963;SDS011;63521;51.900;4.748;2023-05-10T04:41:28;3.80;;;2.08;;
74963;SDS011;63521;51.900;4.748;2023-05-10T04:43:54;4.75;;;2.40;;
74963;SDS011;63521;51.900;4.748;2023-05-10T04:46:20;3.35;;;2.10;;
74963;SDS011;63521;51.900;4.748;2023-05-10T04:48:45;3.78;;;2.17;;
74963;SDS011;63521;51.900;4.748;2023-05-10T04:51:11;4.47;;;2.40;;
74963;SDS011;63521;51.900;4.748;2023-05-10T04:53:37;4.75;;;2.38;;
74963;SDS011;63521;51.900;4.748;2023-05-10T04:56:02;5.00;;;2.40;;
74963;SDS011;63521;51.900;4.748;2023-05-10T04:58:28;5.65;;;2.55;;
74963;SDS011;63521;51.900;4.748;2023-05-10T05:00:53;4.60;;;2.45;;
74963;SDS011;63521;51.900;4.748;2023-05-10T05:03:19;4.18;;;3.03;;
74963;SDS011;63521;51.900;4.748;2023-05-10T05:05:44;6.13;;;2.53;;
74963;SDS011;63521;51.900;4.748;2023-05-10T05:08:10;4.60;;;2.65;;
74963;SDS011;63521;51.900;4.748;2023-05-10T05:10:35;5.47;;;2.53;;
74963;SDS011;63521;51.900;4.748;2023-05-10T05:13:01;6.43;;;2.50;;
74963;SDS011;63521;51.900;4.748;2023-05-10T05:15:26;4.45;;;2.83;;
74963;SDS011;63521;51.900;4.748;2023-05-10T05:17:52;4.90;;;2.60;;
74963;SDS011;63521;51.900;4.748;2023-05-10T05:20:18;4.63;;;2.60;;
74963;SDS011;63521;51.900;4.748;2023-05-10T05:22:44;4.13;;;2.30;;
74963;SDS011;63521;51.900;4.748;2023-05-10T05:25:09;4.95;;;2.80;;
74963;SDS011;63521;51.900;4.748;2023-05-10T05:27:34;5.05;;;2.72;;
74963;SDS011;63521;51.900;4.748;2023-05-10T05:30:00;3.75;;;2.38;;
74963;SDS011;63521;51.900;4.748;2023-05-10T05:32:25;5.47;;;2.60;;
74963;SDS011;63521;51.900;4.748;2023-05-10T05:34:51;4.97;;;2.63;;
74963;SDS011;63521;51.900;4.748;2023-05-10T05:37:17;5.68;;;2.47;;
74963;SDS011;63521;51.900;4.748;2023-05-10T05:39:44;5.80;;;2.85;;
74963;SDS011;63521;51.900;4.748;2023-05-10T05:42:16;5.30;;;2.85;;
74963;SDS011;63521;51.900;4.748;2023-05-10T05:44:58;5.10;;;2.30;;
74963;SDS011;63521;51.900;4.748;2023-05-10T05:48:01;4.32;;;2.38;;
74963;SDS011;63521;51.900;4.748;2023-05-10T05:51:16;6.32;;;2.65;;
74963;SDS011;63521;51.900;4.748;2023-05-10T05:54:25;4.32;;;2.38;;
74963;SDS011;63521;51.900;4.748;2023-05-10T05:57:26;4.88;;;2.58;;
74963;SDS011;63521;51.900;4.748;2023-05-10T06:00:11;6.05;;;2.80;;
74963;SDS011;63521;51.900;4.748;2023-05-10T06:02:46;4.50;;;2.53;;
74963;SDS011;63521;51.900;4.748;2023-05-10T06:05:15;4.45;;;2.28;;
74963;SDS011;63521;51.900;4.748;2023-05-10T06:07:42;5.25;;;3.08;;
74963;SDS011;63521;51.900;4.748;2023-05-10T06:10:08;5.00;;;2.58;;
74963;SDS011;63521;51.900;4.748;2023-05-10T06:12:34;5.32;;;2.60;;
74963;SDS011;63521;51.900;4.748;2023-05-10T06:14:59;5.20;;;2.70;;
74963;SDS011;63521;51.900;4.748;2023-05-10T06:17:25;4.75;;;2.63;;
74963;SDS011;63521;51.900;4.748;2023-05-10T06:19:50;5.18;;;2.55;;
74963;SDS011;63521;51.900;4.748;2023-05-10T06:22:16;4.32;;;2.42;;
74963;SDS011;63521;51.900;4.748;2023-05-10T06:24:41;5.32;;;2.33;;
74963;SDS011;63521;51.900;4.748;2023-05-10T06:27:07;4.30;;;2.47;;
74963;SDS011;63521;51.900;4.748;2023-05-10T06:29:32;3.55;;;1.98;;
74963;SDS011;63521;51.900;4.748;2023-05-10T06:31:58;4.28;;;2.22;;
74963;SDS011;63521;51.900;4.748;2023-05-10T06:34:23;6.13;;;2.28;;
74963;SDS011;63521;51.900;4.748;2023-05-10T06:36:49;4.13;;;2.10;;
74963;SDS011;63521;51.900;4.748;2023-05-10T06:39:15;3.58;;;2.10;;
74963;SDS011;63521;51.900;4.748;2023-05-10T06:41:41;4.10;;;2.15;;
74963;SDS011;63521;51.900;4.748;2023-05-10T06:44:06;4.50;;;2.05;;
74963;SDS011;63521;51.900;4.748;2023-05-10T06:46:32;4.47;;;2.00;;
74963;SDS011;63521;51.900;4.748;2023-05-10T06:48:57;4.70;;;2.25;;
74963;SDS011;63521;51.900;4.748;2023-05-10T06:51:25;3.75;;;2.05;;
74963;SDS011;63521;51.900;4.748;2023-05-10T06:53:51;4.53;;;2.10;;
74963;SDS011;63521;51.900;4.748;2023-05-10T06:56:16;3.58;;;2.03;;
74963;SDS011;63521;51.900;4.748;2023-05-10T06:58:42;3.47;;;2.15;;
74963;SDS011;63521;51.900;4.748;2023-05-10T07:01:07;4.32;;;2.30;;
74963;SDS011;63521;51.900;4.748;2023-05-10T07:03:33;3.08;;;1.90;;
74963;SDS011;63521;51.900;4.748;2023-05-10T07:06:02;4.05;;;2.05;;
74963;SDS011;63521;51.900;4.748;2023-05-10T07:08:31;3.50;;;2.00;;
74963;SDS011;63521;51.900;4.748;2023-05-10T07:11:01;3.95;;;2.28;;
74963;SDS011;63521;51.900;4.748;2023-05-10T07:13:30;3.58;;;1.98;;
74963;SDS011;63521;51.900;4.748;2023-05-10T07:15:56;3.67;;;1.75;;
74963;SDS011;63521;51.900;4.748;2023-05-10T07:18:22;3.72;;;1.98;;
74963;SDS011;63521;51.900;4.748;2023-05-10T07:20:48;3.03;;;1.70;;
74963;SDS011;63521;51.900;4.748;2023-05-10T07:23:13;2.80;;;1.90;;
74963;SDS011;63521;51.900;4.748;2023-05-10T07:25:38;1.88;;;1.40;;
74963;SDS011;63521;51.900;4.748;2023-05-10T07:28:04;2.78;;;1.50;;
74963;SDS011;63521;51.900;4.748;2023-05-10T07:30:29;4.13;;;1.83;;
74963;SDS011;63521;51.900;4.748;2023-05-10T07:32:55;2.78;;;1.88;;
74963;SDS011;63521;51.900;4.748;2023-05-10T07:35:21;2.97;;;1.80;;
74963;SDS011;63521;51.900;4.748;2023-05-10T07:37:46;3.20;;;1.77;;
74963;SDS011;63521;51.900;4.748;2023-05-10T07:40:12;3.05;;;1.80;;
74963;SDS011;63521;51.900;4.748;2023-05-10T07:42:38;4.40;;;1.95;;
74963;SDS011;63521;51.900;4.748;2023-05-10T07:45:03;3.83;;;1.70;;
74963;SDS011;63521;51.900;4.748;2023-05-10T07:47:29;2.65;;;1.70;;
74963;SDS011;63521;51.900;4.748;2023-05-10T07:49:54;2.70;;;1.52;;
74963;SDS011;63521;51.900;4.748;2023-05-10T07:52:20;2.70;;;1.67;;
74963;SDS011;63521;51.900;4.748;2023-05-10T07:54:45;2.25;;;1.60;;
74963;SDS011;63521;51.900;4.748;2023-05-10T07:57:11;2.60;;;1.60;;
74963;SDS011;63521;51.900;4.748;2023-05-10T07:59:39;2.80;;;1.65;;
74963;SDS011;63521;51.900;4.748;2023-05-10T08:02:05;3.55;;;2.05;;
74963;SDS011;63521;51.900;4.748;2023-05-10T08:04:34;1.90;;;1.70;;
74963;SDS011;63521;51.900;4.748;2023-05-10T08:06:59;2.55;;;1.50;;
74963;SDS011;63521;51.900;4.748;2023-05-10T08:09:25;2.55;;;1.70;;
74963;SDS011;63521;51.900;4.748;2023-05-10T08:11:50;3.08;;;1.90;;
74963;SDS011;63521;51.900;4.748;2023-05-10T08:14:16;2.20;;;1.75;;
74963;SDS011;63521;51.900;4.748;2023-05-10T08:16:42;3.30;;;1.75;;
74963;SDS011;63521;51.900;4.748;2023-05-10T08:19:07;2.58;;;1.70;;
74963;SDS011;63521;51.900;4.748;2023-05-10T08:21:32;3.80;;;2.00;;
74963;SDS011;63521;51.900;4.748;2023-05-10T08:23:58;2.90;;;1.77;;
74963;SDS011;63521;51.900;4.748;2023-05-10T08:26:23;3.53;;;1.70;;
74963;SDS011;63521;51.900;4.748;2023-05-10T08:28:49;1.88;;;1.63;;
74963;SDS011;63521;51.900;4.748;2023-05-10T08:31:14;2.33;;;1.63;;
74963;SDS011;63521;51.900;4.748;2023-05-10T08:33:40;2.78;;;1.63;;
74963;SDS011;63521;51.900;4.748;2023-05-10T08:36:05;3.25;;;1.73;;
74963;SDS011;63521;51.900;4.748;2023-05-10T08:38:31;2.53;;;1.30;;
74963;SDS011;63521;51.900;4.748;2023-05-10T08:40:56;3.70;;;1.73;;
74963;SDS011;63521;51.900;4.748;2023-05-10T08:43:24;2.92;;;1.73;;
74963;SDS011;63521;51.900;4.748;2023-05-10T08:45:52;1.67;;;1.48;;
74963;SDS011;63521;51.900;4.748;2023-05-10T08:48:19;2.58;;;1.55;;
74963;SDS011;63521;51.900;4.748;2023-05-10T08:50:44;2.42;;;1.80;;
74963;SDS011;63521;51.900;4.748;2023-05-10T08:53:10;2.60;;;1.55;;
74963;SDS011;63521;51.900;4.748;2023-05-10T08:55:37;2.30;;;1.60;;
74963;SDS011;63521;51.900;4.748;2023-05-10T08:58:06;3.70;;;1.90;;
74963;SDS011;63521;51.900;4.748;2023-05-10T09:00:32;2.65;;;1.75;;
74963;SDS011;63521;51.900;4.748;2023-05-10T09:02:58;2.10;;;1.40;;
74963;SDS011;63521;51.900;4.748;2023-05-10T09:05:24;2.72;;;1.60;;
74963;SDS011;63521;51.900;4.748;2023-05-10T09:07:50;2.30;;;1.60;;
74963;SDS011;63521;51.900;4.748;2023-05-10T09:10:15;1.90;;;1.33;;
74963;SDS011;63521;51.900;4.748;2023-05-10T09:12:41;2.90;;;1.70;;
74963;SDS011;63521;51.900;4.748;2023-05-10T09:15:07;2.83;;;1.70;;
74963;SDS011;63521;51.900;4.748;2023-05-10T09:17:32;3.00;;;2.00;;
74963;SDS011;63521;51.900;4.748;2023-05-10T09:19:59;2.53;;;1.70;;
74963;SDS011;63521;51.900;4.748;2023-05-10T09:22:25;3.10;;;1.63;;
74963;SDS011;63521;51.900;4.748;2023-05-10T09:25:03;2.40;;;1.65;;
74963;SDS011;63521;51.900;4.748;2023-05-10T09:27:39;2.38;;;1.67;;
74963;SDS011;63521;51.900;4.748;2023-05-10T09:30:05;2.72;;;1.83;;
74963;SDS011;63521;51.900;4.748;2023-05-10T09:32:38;3.22;;;1.70;;
74963;SDS011;63521;51.900;4.748;2023-05-10T09:35:08;2.60;;;1.60;;
74963;SDS011;63521;51.900;4.748;2023-05-10T09:37:35;2.25;;;1.50;;
74963;SDS011;63521;51.900;4.748;2023-05-10T09:40:00;2.53;;;1.80;;
74963;SDS011;63521;51.900;4.748;2023-05-10T09:42:29;2.53;;;1.80;;
74963;SDS011;63521;51.900;4.748;2023-05-10T09:45:02;2.92;;;1.60;;
74963;SDS011;63521;51.900;4.748;2023-05-10T09:47:31;1.95;;;1.40;;
74963;SDS011;63521;51.900;4.748;2023-05-10T09:49:58;2.75;;;1.85;;
74963;SDS011;63521;51.900;4.748;2023-05-10T09:52:28;1.65;;;1.40;;
74963;SDS011;63521;51.900;4.748;2023-05-10T09:54:53;3.13;;;1.70;;
74963;SDS011;63521;51.900;4.748;2023-05-10T09:57:46;2.90;;;1.60;;
74963;SDS011;63521;51.900;4.748;2023-05-10T10:00:16;2.33;;;1.50;;
74963;SDS011;63521;51.900;4.748;2023-05-10T10:02:44;4.15;;;2.60;;
74963;SDS011;63521;51.900;4.748;2023-05-10T10:05:11;5.90;;;2.47;;
74963;SDS011;63521;51.900;4.748;2023-05-10T10:07:42;5.10;;;2.70;;
74963;SDS011;63521;51.900;4.748;2023-05-10T10:10:10;4.65;;;2.70;;
74963;SDS011;63521;51.900;4.748;2023-05-10T10:12:45;4.85;;;2.72;;
74963;SDS011;63521;51.900;4.748;2023-05-10T10:15:10;5.28;;;2.55;;
74963;SDS011;63521;51.900;4.748;2023-05-10T10:17:36;4.65;;;2.80;;
74963;SDS011;63521;51.900;4.748;2023-05-10T10:20:03;3.58;;;2.35;;
74963;SDS011;63521;51.900;4.748;2023-05-10T10:22:29;2.92;;;2.30;;
74963;SDS011;63521;51.900;4.748;2023-05-10T10:24:55;4.00;;;2.47;;
74963;SDS011;63521;51.900;4.748;2023-05-10T10:35:31;5.60;;;2.72;;
74963;SDS011;63521;51.900;4.748;2023-05-10T10:37:57;3.60;;;2.75;;
74963;SDS011;63521;51.900;4.748;2023-05-10T10:40:23;5.75;;;2.53;;
74963;SDS011;63521;51.900;4.748;2023-05-10T10:42:50;4.55;;;2.60;;
74963;SDS011;63521;51.900;4.748;2023-05-10T10:45:16;3.45;;;2.33;;
74963;SDS011;63521;51.900;4.748;2023-05-10T10:47:41;3.67;;;2.13;;
74963;SDS011;63521;51.900;4.748;2023-05-10T10:50:08;4.20;;;2.20;;
74963;SDS011;63521;51.900;4.748;2023-05-10T10:55:10;2.92;;;2.08;;
74963;SDS011;63521;51.900;4.748;2023-05-10T11:00:18;3.10;;;1.92;;
74963;SDS011;63521;51.900;4.748;2023-05-10T11:02:46;2.58;;;1.70;;
74963;SDS011;63521;51.900;4.748;2023-05-10T11:07:56;3.05;;;1.80;;
74963;SDS011;63521;51.900;4.748;2023-05-10T11:10:29;2.65;;;1.48;;
74963;SDS011;63521;51.900;4.748;2023-05-10T11:15:36;2.03;;;1.30;;
74963;SDS011;63521;51.900;4.748;2023-05-10T11:21:01;4.60;;;2.60;;
74963;SDS011;63521;51.900;4.748;2023-05-10T11:26:09;4.85;;;2.80;;
74963;SDS011;63521;51.900;4.748;2023-05-10T11:28:40;4.28;;;2.95;;
74963;SDS011;63521;51.900;4.748;2023-05-10T11:31:08;6.65;;;3.47;;
74963;SDS011;63521;51.900;4.748;2023-05-10T11:33:44;5.32;;;3.70;;
74963;SDS011;63521;51.900;4.748;2023-05-10T11:36:11;7.10;;;4.00;;
74963;SDS011;63521;51.900;4.748;2023-05-10T11:38:39;9.05;;;4.50;;
74963;SDS011;63521;51.900;4.748;2023-05-10T11:41:04;9.13;;;4.65;;
74963;SDS011;63521;51.900;4.748;2023-05-10T11:43:29;6.35;;;4.50;;
74963;SDS011;63521;51.900;4.748;2023-05-10T11:45:57;5.78;;;4.07;;
74963;SDS011;63521;51.900;4.748;2023-05-10T11:48:22;7.35;;;4.43;;
74963;SDS011;63521;51.900;4.748;2023-05-10T11:50:49;6.57;;;4.55;;
74963;SDS011;63521;51.900;4.748;2023-05-10T11:53:15;6.63;;;4.65;;
74963;SDS011;63521;51.900;4.748;2023-05-10T11:55:40;6.90;;;4.35;;
74963;SDS011;63521;51.900;4.748;2023-05-10T11:58:06;7.00;;;4.97;;
74963;SDS011;63521;51.900;4.748;2023-05-10T12:00:31;6.35;;;4.38;;
74963;SDS011;63521;51.900;4.748;2023-05-10T12:02:57;8.00;;;4.45;;
74963;SDS011;63521;51.900;4.748;2023-05-10T12:05:28;6.15;;;4.40;;
74963;SDS011;63521;51.900;4.748;2023-05-10T12:08:13;7.00;;;4.60;;
74963;SDS011;63521;51.900;4.748;2023-05-10T12:10:39;8.57;;;4.97;;
74963;SDS011;63521;51.900;4.748;2023-05-10T12:13:05;9.23;;;4.60;;
74963;SDS011;63521;51.900;4.748;2023-05-10T12:15:32;9.02;;;4.68;;
74963;SDS011;63521;51.900;4.748;2023-05-10T12:17:57;7.82;;;4.50;;
74963;SDS011;63521;51.900;4.748;2023-05-10T12:20:23;7.13;;;4.10;;
74963;SDS011;63521;51.900;4.748;2023-05-10T12:25:16;7.03;;;4.43;;
74963;SDS011;63521;51.900;4.748;2023-05-10T12:27:51;5.63;;;3.85;;
74963;SDS011;63521;51.900;4.748;2023-05-10T12:30:19;6.13;;;3.60;;
74963;SDS011;63521;51.900;4.748;2023-05-10T12:32:46;5.45;;;3.55;;
74963;SDS011;63521;51.900;4.748;2023-05-10T12:35:11;5.75;;;3.50;;
74963;SDS011;63521;51.900;4.748;2023-05-10T12:37:39;7.00;;;3.67;;
74963;SDS011;63521;51.900;4.748;2023-05-10T12:40:05;5.72;;;3.80;;
74963;SDS011;63521;51.900;4.748;2023-05-10T12:42:33;5.00;;;3.42;;
74963;SDS011;63521;51.900;4.748;2023-05-10T12:44:59;6.15;;;3.65;;
74963;SDS011;63521;51.900;4.748;2023-05-10T12:47:24;6.28;;;3.40;;
74963;SDS011;63521;51.900;4.748;2023-05-10T12:49:50;7.60;;;3.92;;
74963;SDS011;63521;51.900;4.748;2023-05-10T12:52:16;5.00;;;3.47;;
74963;SDS011;63521;51.900;4.748;2023-05-10T12:54:41;5.40;;;3.40;;
74963;SDS011;63521;51.900;4.748;2023-05-10T12:57:07;4.72;;;3.30;;
74963;SDS011;63521;51.900;4.748;2023-05-10T12:59:32;5.60;;;3.90;;
74963;SDS011;63521;51.900;4.748;2023-05-10T13:01:58;4.88;;;3.38;;
74963;SDS011;63521;51.900;4.748;2023-05-10T13:04:23;6.55;;;3.55;;
74963;SDS011;63521;51.900;4.748;2023-05-10T13:06:49;6.93;;;3.35;;
74963;SDS011;63521;51.900;4.748;2023-05-10T13:09:14;5.78;;;3.38;;
74963;SDS011;63521;51.900;4.748;2023-05-10T13:11:40;5.53;;;3.00;;
74963;SDS011;63521;51.900;4.748;2023-05-10T13:14:06;4.13;;;3.20;;
74963;SDS011;63521;51.900;4.748;2023-05-10T13:16:31;5.35;;;2.70;;
74963;SDS011;63521;51.900;4.748;2023-05-10T13:18:56;4.50;;;2.75;;
74963;SDS011;63521;51.900;4.748;2023-05-10T13:21:22;5.50;;;2.95;;
74963;SDS011;63521;51.900;4.748;2023-05-10T13:23:49;3.50;;;2.53;;
74963;SDS011;63521;51.900;4.748;2023-05-10T13:26:15;4.15;;;2.33;;
74963;SDS011;63521;51.900;4.748;2023-05-10T13:28:40;3.63;;;2.50;;
74963;SDS011;63521;51.900;4.748;2023-05-10T13:31:05;3.33;;;2.35;;
74963;SDS011;63521;51.900;4.748;2023-05-10T13:33:31;4.32;;;2.40;;
74963;SDS011;63521;51.900;4.748;2023-05-10T13:35:56;7.05;;;4.45;;
74963;SDS011;63521;51.900;4.748;2023-05-10T13:38:22;5.50;;;3.03;;
74963;SDS011;63521;51.900;4.748;2023-05-10T13:40:47;5.80;;;3.05;;
74963;SDS011;63521;51.900;4.748;2023-05-10T13:43:13;6.03;;;3.63;;
74963;SDS011;63521;51.900;4.748;2023-05-10T13:45:38;5.00;;;3.47;;
74963;SDS011;63521;51.900;4.748;2023-05-10T13:48:04;5.85;;;3.95;;
74963;SDS011;63521;51.900;4.748;2023-05-10T13:50:29;6.43;;;3.72;;
74963;SDS011;63521;51.900;4.748;2023-05-10T13:52:55;6.03;;;3.67;;
74963;SDS011;63521;51.900;4.748;2023-05-10T13:55:20;6.10;;;3.42;;
74963;SDS011;63521;51.900;4.748;2023-05-10T13:57:46;4.80;;;3.13;;
74963;SDS011;63521;51.900;4.748;2023-05-10T14:00:11;5.20;;;2.90;;
74963;SDS011;63521;51.900;4.748;2023-05-10T14:02:37;5.13;;;3.20;;
74963;SDS011;63521;51.900;4.748;2023-05-10T14:05:03;5.03;;;3.22;;
74963;SDS011;63521;51.900;4.748;2023-05-10T14:07:29;6.07;;;2.67;;
74963;SDS011;63521;51.900;4.748;2023-05-10T14:09:54;5.13;;;2.47;;
74963;SDS011;63521;51.900;4.748;2023-05-10T14:12:26;5.40;;;2.92;;
74963;SDS011;63521;51.900;4.748;2023-05-10T14:14:52;4.78;;;2.67;;
74963;SDS011;63521;51.900;4.748;2023-05-10T14:17:21;5.22;;;3.05;;
74963;SDS011;63521;51.900;4.748;2023-05-10T14:19:47;5.15;;;2.85;;
74963;SDS011;63521;51.900;4.748;2023-05-10T14:22:12;7.28;;;3.22;;
74963;SDS011;63521;51.900;4.748;2023-05-10T14:24:37;6.03;;;2.95;;
74963;SDS011;63521;51.900;4.748;2023-05-10T14:27:03;5.70;;;3.10;;
74963;SDS011;63521;51.900;4.748;2023-05-10T14:29:28;6.20;;;3.03;;
74963;SDS011;63521;51.900;4.748;2023-05-10T14:31:54;5.10;;;2.65;;
74963;SDS011;63521;51.900;4.748;2023-05-10T14:34:20;4.68;;;3.38;;
74963;SDS011;63521;51.900;4.748;2023-05-10T14:36:46;7.35;;;2.70;;
74963;SDS011;63521;51.900;4.748;2023-05-10T14:39:11;4.28;;;2.78;;
74963;SDS011;63521;51.900;4.748;2023-05-10T14:41:38;6.47;;;2.45;;
74963;SDS011;63521;51.900;4.748;2023-05-10T14:44:06;4.20;;;2.65;;
74963;SDS011;63521;51.900;4.748;2023-05-10T14:46:31;12.70;;;2.70;;
74963;SDS011;63521;51.900;4.748;2023-05-10T14:48:56;3.83;;;2.40;;
74963;SDS011;63521;51.900;4.748;2023-05-10T14:51:22;6.25;;;2.92;;
74963;SDS011;63521;51.900;4.748;2023-05-10T14:53:48;5.03;;;2.55;;
74963;SDS011;63521;51.900;4.748;2023-05-10T14:56:14;4.80;;;2.75;;
74963;SDS011;63521;51.900;4.748;2023-05-10T14:58:39;6.70;;;3.15;;
74963;SDS011;63521;51.900;4.748;2023-05-10T15:01:05;5.47;;;2.83;;
74963;SDS011;63521;51.900;4.748;2023-05-10T15:03:30;4.25;;;2.90;;
74963;SDS011;63521;51.900;4.748;2023-05-10T15:05:56;5.05;;;2.58;;
74963;SDS011;63521;51.900;4.748;2023-05-10T15:08:22;10.13;;;3.30;;
74963;SDS011;63521;51.900;4.748;2023-05-10T15:10:49;5.72;;;2.63;;
74963;SDS011;63521;51.900;4.748;2023-05-10T15:13:15;8.68;;;2.63;;
74963;SDS011;63521;51.900;4.748;2023-05-10T15:15:40;6.93;;;3.10;;
74963;SDS011;63521;51.900;4.748;2023-05-10T15:18:06;4.80;;;2.28;;
74963;SDS011;63521;51.900;4.748;2023-05-10T15:20:31;3.55;;;2.08;;
74963;SDS011;63521;51.900;4.748;2023-05-10T15:22:57;4.00;;;2.10;;
74963;SDS011;63521;51.900;4.748;2023-05-10T15:25:22;4.03;;;2.13;;
74963;SDS011;63521;51.900;4.748;2023-05-10T15:27:48;4.32;;;2.20;;
74963;SDS011;63521;51.900;4.748;2023-05-10T15:30:14;3.45;;;1.90;;
74963;SDS011;63521;51.900;4.748;2023-05-10T15:32:39;3.05;;;1.83;;
74963;SDS011;63521;51.900;4.748;2023-05-10T15:35:06;3.30;;;1.70;;